Wilmington International Airport Wilmington US
ICAO: KILM
IATA: ILM
Category: Medium
Scheduled Services: Yes

Elevation: 32 ft
TransAlt. 18000 ft.

Airport Communications:
APP/DEP:118.25
ATIS:121.1
CTAF:119.9
GND/CLNC DEL:121.9
RALEIGH RDO:122.55
TWR:119.9
UNICOM:122.95

KILM Zoom In..

If you have problems with the map follow the link
https://www.worldairports.se/pages/airport.php?
ICAO=KILM

Runways:

(A) RW 06 length 8016 ft width 150 ft
ILS 109.95 / hdg 55

(B) RW 17 length 7004 ft width 150 ft
---- / hdg 166

(C) RW 24 length 8016 ft width 150 ft
ILS 111.55 / hdg 235

(D) RW 35 length 7004 ft width 150 ft
ILS 110.30 / hdg 346

Location; KILM
Day. 07 / Time. 08.53 Zulu
* Altimeter: 30.18
* Temperature: 07° c. 44.6°f.
* Wind from: 330° Speed 03 kn.
Dewpoint: 07° c.
Visibility: 1/4 Statute Miles.
Conditions: Fog.

KILM 070853Z 33003KT 1/4SM R35/2400V6000FT FG VV002 07/07 A3018 RMK AO2 SLP218 T00720067 53003


Wind From 330°
Speed 03 kn.

 
 
jpsmedia worldairports.se 2019   terms of use